Alta, West Virginia
Current Conditions -  °F | °C
As of 8:15 AM on Sunday 23 Nov 2014 (Local Time) from KLWB Reporting Station
Clear Clear  
Wind Chill: 32°   Ceiling: Unl
Heat Index: 32°   Visibility: 10mi
Dew Point: 26°   Wind: 3mph
Humidity: 77%   Direction: 30°NNE
Pressure: 30.19"   Gusts: NA
Location:  37.8345°N, 80.5736°W
Report Text: KLWB 231315Z AUTO 03003KT 10SM CLR 00/M04 A3019 RMK AO2 T00001036
Loading
Personal Weather Stations






























Interactive Weather Map New forecast layout! Learn more

10-Day Weather Forecast

Advertisements
Track Severe Weather on mobile